sensor_id;sensor_type;location;lat;lon;timestamp;P1;durP1;ratioP1;P2;durP2;ratioP2
69034;SDS011;56091;55.756;37.412;2024-03-02T00:01:10;56.58;;;24.95;;
69034;SDS011;56091;55.756;37.412;2024-03-02T00:06:10;51.80;;;24.90;;
69034;SDS011;56091;55.756;37.412;2024-03-02T00:11:12;61.35;;;24.70;;
69034;SDS011;56091;55.756;37.412;2024-03-02T00:16:15;48.97;;;23.10;;
69034;SDS011;56091;55.756;37.412;2024-03-02T00:21:18;49.63;;;23.02;;
69034;SDS011;56091;55.756;37.412;2024-03-02T00:26:22;53.37;;;23.30;;
69034;SDS011;56091;55.756;37.412;2024-03-02T00:31:23;65.63;;;24.33;;
69034;SDS011;56091;55.756;37.412;2024-03-02T00:36:26;48.37;;;22.47;;
69034;SDS011;56091;55.756;37.412;2024-03-02T00:41:30;53.47;;;23.17;;
69034;SDS011;56091;55.756;37.412;2024-03-02T00:46:35;47.60;;;22.10;;
69034;SDS011;56091;55.756;37.412;2024-03-02T00:51:37;56.17;;;22.98;;
69034;SDS011;56091;55.756;37.412;2024-03-02T00:56:38;50.93;;;22.07;;
69034;SDS011;56091;55.756;37.412;2024-03-02T01:01:39;55.75;;;22.33;;
69034;SDS011;56091;55.756;37.412;2024-03-02T01:06:39;53.67;;;22.73;;
69034;SDS011;56091;55.756;37.412;2024-03-02T01:11:41;52.38;;;22.25;;
69034;SDS011;56091;55.756;37.412;2024-03-02T01:16:42;56.10;;;23.07;;
69034;SDS011;56091;55.756;37.412;2024-03-02T01:21:43;54.28;;;23.70;;
69034;SDS011;56091;55.756;37.412;2024-03-02T01:26:44;47.20;;;22.42;;
69034;SDS011;56091;55.756;37.412;2024-03-02T01:31:44;62.13;;;23.53;;
69034;SDS011;56091;55.756;37.412;2024-03-02T01:36:45;54.30;;;23.13;;
69034;SDS011;56091;55.756;37.412;2024-03-02T01:41:46;52.27;;;22.80;;
69034;SDS011;56091;55.756;37.412;2024-03-02T01:46:46;51.80;;;22.20;;
69034;SDS011;56091;55.756;37.412;2024-03-02T01:51:47;54.35;;;23.63;;
69034;SDS011;56091;55.756;37.412;2024-03-02T01:56:48;48.23;;;22.53;;
69034;SDS011;56091;55.756;37.412;2024-03-02T02:01:49;49.07;;;22.17;;
69034;SDS011;56091;55.756;37.412;2024-03-02T02:06:49;46.58;;;22.75;;
69034;SDS011;56091;55.756;37.412;2024-03-02T02:11:51;49.77;;;22.40;;
69034;SDS011;56091;55.756;37.412;2024-03-02T02:16:52;49.80;;;22.08;;
69034;SDS011;56091;55.756;37.412;2024-03-02T02:21:53;49.13;;;22.77;;
69034;SDS011;56091;55.756;37.412;2024-03-02T02:26:53;55.08;;;22.98;;
69034;SDS011;56091;55.756;37.412;2024-03-02T02:31:55;51.78;;;22.50;;
69034;SDS011;56091;55.756;37.412;2024-03-02T02:36:55;47.80;;;22.03;;
69034;SDS011;56091;55.756;37.412;2024-03-02T02:41:56;50.63;;;21.42;;
69034;SDS011;56091;55.756;37.412;2024-03-02T02:46:57;47.13;;;21.73;;
69034;SDS011;56091;55.756;37.412;2024-03-02T02:51:58;51.85;;;21.45;;
69034;SDS011;56091;55.756;37.412;2024-03-02T02:56:58;49.30;;;22.53;;
69034;SDS011;56091;55.756;37.412;2024-03-02T03:01:59;46.53;;;21.00;;
69034;SDS011;56091;55.756;37.412;2024-03-02T03:07:00;47.92;;;22.38;;
69034;SDS011;56091;55.756;37.412;2024-03-02T03:12:01;44.00;;;20.57;;
69034;SDS011;56091;55.756;37.412;2024-03-02T03:17:02;48.63;;;21.80;;
69034;SDS011;56091;55.756;37.412;2024-03-02T03:22:03;49.20;;;22.00;;
69034;SDS011;56091;55.756;37.412;2024-03-02T03:27:04;48.97;;;21.77;;
69034;SDS011;56091;55.756;37.412;2024-03-02T03:32:05;49.50;;;21.80;;
69034;SDS011;56091;55.756;37.412;2024-03-02T03:37:07;46.90;;;22.23;;
69034;SDS011;56091;55.756;37.412;2024-03-02T03:42:08;48.67;;;22.05;;
69034;SDS011;56091;55.756;37.412;2024-03-02T03:47:08;47.03;;;22.37;;
69034;SDS011;56091;55.756;37.412;2024-03-02T03:52:09;47.30;;;21.75;;
69034;SDS011;56091;55.756;37.412;2024-03-02T03:57:10;51.67;;;22.13;;
69034;SDS011;56091;55.756;37.412;2024-03-02T04:02:12;44.93;;;21.67;;
69034;SDS011;56091;55.756;37.412;2024-03-02T04:07:13;49.53;;;23.02;;
69034;SDS011;56091;55.756;37.412;2024-03-02T04:12:14;48.90;;;22.03;;
69034;SDS011;56091;55.756;37.412;2024-03-02T04:17:14;53.72;;;23.30;;
69034;SDS011;56091;55.756;37.412;2024-03-02T04:22:15;49.17;;;22.17;;
69034;SDS011;56091;55.756;37.412;2024-03-02T04:27:16;51.20;;;23.25;;
69034;SDS011;56091;55.756;37.412;2024-03-02T04:32:17;57.17;;;23.83;;
69034;SDS011;56091;55.756;37.412;2024-03-02T04:37:19;49.13;;;22.60;;
69034;SDS011;56091;55.756;37.412;2024-03-02T04:42:20;52.88;;;22.77;;
69034;SDS011;56091;55.756;37.412;2024-03-02T04:47:21;46.27;;;21.23;;
69034;SDS011;56091;55.756;37.412;2024-03-02T04:52:23;51.38;;;23.05;;
69034;SDS011;56091;55.756;37.412;2024-03-02T04:57:24;53.40;;;23.03;;
69034;SDS011;56091;55.756;37.412;2024-03-02T05:02:24;53.25;;;23.48;;
69034;SDS011;56091;55.756;37.412;2024-03-02T05:07:25;51.30;;;23.77;;
69034;SDS011;56091;55.756;37.412;2024-03-02T05:12:26;54.20;;;22.93;;
69034;SDS011;56091;55.756;37.412;2024-03-02T05:17:50;54.72;;;25.77;;
69034;SDS011;56091;55.756;37.412;2024-03-02T05:22:51;61.63;;;27.60;;
69034;SDS011;56091;55.756;37.412;2024-03-02T05:27:52;58.60;;;28.30;;
69034;SDS011;56091;55.756;37.412;2024-03-02T05:32:52;61.92;;;28.67;;
69034;SDS011;56091;55.756;37.412;2024-03-02T05:37:53;65.93;;;26.93;;
69034;SDS011;56091;55.756;37.412;2024-03-02T05:42:54;66.23;;;26.13;;
69034;SDS011;56091;55.756;37.412;2024-03-02T05:47:54;63.05;;;25.77;;
69034;SDS011;56091;55.756;37.412;2024-03-02T05:52:55;62.53;;;27.70;;
69034;SDS011;56091;55.756;37.412;2024-03-02T05:57:56;65.75;;;27.98;;
69034;SDS011;56091;55.756;37.412;2024-03-02T06:03:06;61.27;;;27.77;;
69034;SDS011;56091;55.756;37.412;2024-03-02T06:08:08;64.45;;;28.70;;
69034;SDS011;56091;55.756;37.412;2024-03-02T06:13:08;66.43;;;29.47;;
69034;SDS011;56091;55.756;37.412;2024-03-02T06:18:09;65.63;;;29.60;;
69034;SDS011;56091;55.756;37.412;2024-03-02T06:23:10;68.65;;;30.95;;
69034;SDS011;56091;55.756;37.412;2024-03-02T06:28:11;65.00;;;30.10;;
69034;SDS011;56091;55.756;37.412;2024-03-02T06:33:11;69.80;;;30.13;;
69034;SDS011;56091;55.756;37.412;2024-03-02T06:38:12;78.30;;;31.83;;
69034;SDS011;56091;55.756;37.412;2024-03-02T06:43:13;69.33;;;31.03;;
69034;SDS011;56091;55.756;37.412;2024-03-02T06:48:14;76.13;;;31.35;;
69034;SDS011;56091;55.756;37.412;2024-03-02T06:53:19;70.83;;;31.43;;
69034;SDS011;56091;55.756;37.412;2024-03-02T06:58:21;71.35;;;30.98;;
69034;SDS011;56091;55.756;37.412;2024-03-02T07:03:22;68.47;;;30.33;;
69034;SDS011;56091;55.756;37.412;2024-03-02T07:08:22;69.83;;;30.83;;
69034;SDS011;56091;55.756;37.412;2024-03-02T07:13:23;69.85;;;32.22;;
69034;SDS011;56091;55.756;37.412;2024-03-02T07:18:24;68.40;;;30.27;;
69034;SDS011;56091;55.756;37.412;2024-03-02T07:23:25;70.97;;;30.37;;
69034;SDS011;56091;55.756;37.412;2024-03-02T07:28:27;75.43;;;34.30;;
69034;SDS011;56091;55.756;37.412;2024-03-02T07:33:28;73.23;;;34.00;;
69034;SDS011;56091;55.756;37.412;2024-03-02T07:38:29;76.32;;;34.53;;
69034;SDS011;56091;55.756;37.412;2024-03-02T07:43:33;83.00;;;38.77;;
69034;SDS011;56091;55.756;37.412;2024-03-02T07:48:34;89.03;;;37.35;;
69034;SDS011;56091;55.756;37.412;2024-03-02T07:53:34;90.57;;;39.63;;
69034;SDS011;56091;55.756;37.412;2024-03-02T07:58:36;95.40;;;38.30;;
69034;SDS011;56091;55.756;37.412;2024-03-02T08:03:37;85.33;;;34.70;;
69034;SDS011;56091;55.756;37.412;2024-03-02T08:08:38;89.40;;;38.47;;
69034;SDS011;56091;55.756;37.412;2024-03-02T08:13:39;84.70;;;36.90;;
69034;SDS011;56091;55.756;37.412;2024-03-02T08:18:40;90.78;;;38.00;;
69034;SDS011;56091;55.756;37.412;2024-03-02T08:23:41;85.77;;;38.97;;
69034;SDS011;56091;55.756;37.412;2024-03-02T08:28:42;83.50;;;38.17;;
69034;SDS011;56091;55.756;37.412;2024-03-02T08:33:43;88.90;;;37.65;;
69034;SDS011;56091;55.756;37.412;2024-03-02T08:38:44;77.00;;;35.00;;
69034;SDS011;56091;55.756;37.412;2024-03-02T08:43:45;87.30;;;37.92;;
69034;SDS011;56091;55.756;37.412;2024-03-02T08:48:46;80.43;;;37.47;;
69034;SDS011;56091;55.756;37.412;2024-03-02T08:53:46;77.70;;;37.47;;
69034;SDS011;56091;55.756;37.412;2024-03-02T08:58:47;78.50;;;35.57;;
69034;SDS011;56091;55.756;37.412;2024-03-02T09:03:48;80.17;;;34.53;;
69034;SDS011;56091;55.756;37.412;2024-03-02T09:08:52;72.55;;;35.63;;
69034;SDS011;56091;55.756;37.412;2024-03-02T09:13:53;71.13;;;33.37;;
69034;SDS011;56091;55.756;37.412;2024-03-02T09:18:55;73.72;;;34.67;;
69034;SDS011;56091;55.756;37.412;2024-03-02T09:23:56;64.97;;;32.10;;
69034;SDS011;56091;55.756;37.412;2024-03-02T09:28:57;71.30;;;33.40;;
69034;SDS011;56091;55.756;37.412;2024-03-02T09:33:57;76.60;;;34.90;;
69034;SDS011;56091;55.756;37.412;2024-03-02T09:38:58;59.13;;;29.27;;
69034;SDS011;56091;55.756;37.412;2024-03-02T09:43:59;61.78;;;27.95;;
69034;SDS011;56091;55.756;37.412;2024-03-02T09:49:00;94.57;;;44.00;;
69034;SDS011;56091;55.756;37.412;2024-03-02T09:54:01;80.95;;;37.85;;
69034;SDS011;56091;55.756;37.412;2024-03-02T09:59:02;74.00;;;34.70;;
69034;SDS011;56091;55.756;37.412;2024-03-02T10:04:03;64.00;;;31.90;;
69034;SDS011;56091;55.756;37.412;2024-03-02T10:09:05;89.70;;;37.13;;
69034;SDS011;56091;55.756;37.412;2024-03-02T10:19:17;71.27;;;33.03;;
69034;SDS011;56091;55.756;37.412;2024-03-02T10:24:19;67.88;;;33.20;;
69034;SDS011;56091;55.756;37.412;2024-03-02T10:29:22;76.53;;;33.50;;
69034;SDS011;56091;55.756;37.412;2024-03-02T10:34:23;80.05;;;35.90;;
69034;SDS011;56091;55.756;37.412;2024-03-02T10:39:23;75.30;;;33.43;;
69034;SDS011;56091;55.756;37.412;2024-03-02T10:44:24;74.95;;;33.40;;
69034;SDS011;56091;55.756;37.412;2024-03-02T10:49:25;69.17;;;33.40;;
69034;SDS011;56091;55.756;37.412;2024-03-02T10:54:27;75.25;;;33.38;;
69034;SDS011;56091;55.756;37.412;2024-03-02T10:59:33;84.87;;;33.27;;
69034;SDS011;56091;55.756;37.412;2024-03-02T11:04:35;75.18;;;34.30;;
69034;SDS011;56091;55.756;37.412;2024-03-02T11:09:38;72.57;;;32.67;;
69034;SDS011;56091;55.756;37.412;2024-03-02T11:14:41;70.70;;;31.52;;
69034;SDS011;56091;55.756;37.412;2024-03-02T11:19:45;76.37;;;32.70;;
69034;SDS011;56091;55.756;37.412;2024-03-02T11:24:50;68.50;;;31.17;;
69034;SDS011;56091;55.756;37.412;2024-03-02T11:29:52;65.93;;;30.37;;
69034;SDS011;56091;55.756;37.412;2024-03-02T11:34:53;69.18;;;30.88;;
69034;SDS011;56091;55.756;37.412;2024-03-02T11:39:54;72.33;;;31.47;;
69034;SDS011;56091;55.756;37.412;2024-03-02T11:44:55;84.33;;;34.17;;
69034;SDS011;56091;55.756;37.412;2024-03-02T11:49:57;68.00;;;32.00;;
69034;SDS011;56091;55.756;37.412;2024-03-02T11:54:59;61.90;;;29.23;;
69034;SDS011;56091;55.756;37.412;2024-03-02T12:00:04;68.50;;;31.17;;
69034;SDS011;56091;55.756;37.412;2024-03-02T12:05:06;73.50;;;33.00;;
69034;SDS011;56091;55.756;37.412;2024-03-02T12:10:08;63.40;;;29.85;;
69034;SDS011;56091;55.756;37.412;2024-03-02T12:15:09;57.83;;;28.53;;
69034;SDS011;56091;55.756;37.412;2024-03-02T12:20:11;57.88;;;25.30;;
69034;SDS011;56091;55.756;37.412;2024-03-02T12:25:12;132.30;;;59.60;;
69034;SDS011;56091;55.756;37.412;2024-03-02T12:30:16;89.20;;;43.35;;
69034;SDS011;56091;55.756;37.412;2024-03-02T12:35:17;63.93;;;30.00;;
69034;SDS011;56091;55.756;37.412;2024-03-02T12:40:19;69.03;;;29.30;;
69034;SDS011;56091;55.756;37.412;2024-03-02T12:45:20;59.73;;;25.77;;
69034;SDS011;56091;55.756;37.412;2024-03-02T12:50:24;50.10;;;24.25;;
69034;SDS011;56091;55.756;37.412;2024-03-02T12:55:26;48.77;;;22.37;;
69034;SDS011;56091;55.756;37.412;2024-03-02T13:00:26;55.08;;;25.58;;
69034;SDS011;56091;55.756;37.412;2024-03-02T13:05:29;60.87;;;28.67;;
69034;SDS011;56091;55.756;37.412;2024-03-02T13:10:31;60.53;;;27.15;;
69034;SDS011;56091;55.756;37.412;2024-03-02T13:15:33;56.20;;;28.33;;
69034;SDS011;56091;55.756;37.412;2024-03-02T13:20:34;62.85;;;28.92;;
69034;SDS011;56091;55.756;37.412;2024-03-02T13:25:35;59.43;;;24.87;;
69034;SDS011;56091;55.756;37.412;2024-03-02T13:30:36;56.67;;;26.33;;
69034;SDS011;56091;55.756;37.412;2024-03-02T13:35:37;57.85;;;26.08;;
69034;SDS011;56091;55.756;37.412;2024-03-02T13:40:38;59.90;;;29.53;;
69034;SDS011;56091;55.756;37.412;2024-03-02T13:45:39;70.13;;;34.33;;
69034;SDS011;56091;55.756;37.412;2024-03-02T13:50:40;58.13;;;27.77;;
69034;SDS011;56091;55.756;37.412;2024-03-02T13:55:41;61.22;;;27.75;;
69034;SDS011;56091;55.756;37.412;2024-03-02T14:00:42;55.47;;;26.30;;
69034;SDS011;56091;55.756;37.412;2024-03-02T14:05:45;65.97;;;26.05;;
69034;SDS011;56091;55.756;37.412;2024-03-02T14:10:46;46.87;;;22.97;;
69034;SDS011;56091;55.756;37.412;2024-03-02T14:15:47;49.63;;;23.58;;
69034;SDS011;56091;55.756;37.412;2024-03-02T14:20:49;48.70;;;23.43;;
69034;SDS011;56091;55.756;37.412;2024-03-02T14:25:52;50.33;;;23.23;;
69034;SDS011;56091;55.756;37.412;2024-03-02T14:30:53;54.50;;;23.87;;
69034;SDS011;56091;55.756;37.412;2024-03-02T14:35:55;49.17;;;22.17;;
69034;SDS011;56091;55.756;37.412;2024-03-02T14:40:55;54.63;;;23.88;;
69034;SDS011;56091;55.756;37.412;2024-03-02T14:45:57;50.70;;;22.87;;
69034;SDS011;56091;55.756;37.412;2024-03-02T14:50:59;52.65;;;25.63;;
69034;SDS011;56091;55.756;37.412;2024-03-02T14:56:00;43.23;;;20.40;;
69034;SDS011;56091;55.756;37.412;2024-03-02T15:01:01;56.70;;;22.85;;
69034;SDS011;56091;55.756;37.412;2024-03-02T15:06:02;43.80;;;20.87;;
69034;SDS011;56091;55.756;37.412;2024-03-02T15:11:04;52.13;;;21.67;;
69034;SDS011;56091;55.756;37.412;2024-03-02T15:16:05;65.83;;;26.07;;
69034;SDS011;56091;55.756;37.412;2024-03-02T15:21:06;52.38;;;21.48;;
69034;SDS011;56091;55.756;37.412;2024-03-02T15:26:07;56.37;;;22.97;;
69034;SDS011;56091;55.756;37.412;2024-03-02T15:31:08;58.17;;;23.63;;
69034;SDS011;56091;55.756;37.412;2024-03-02T15:36:08;45.85;;;20.67;;
69034;SDS011;56091;55.756;37.412;2024-03-02T15:41:09;47.57;;;20.87;;
69034;SDS011;56091;55.756;37.412;2024-03-02T15:46:10;47.60;;;20.60;;
69034;SDS011;56091;55.756;37.412;2024-03-02T15:51:11;44.73;;;20.53;;
69034;SDS011;56091;55.756;37.412;2024-03-02T15:56:12;48.38;;;20.77;;
69034;SDS011;56091;55.756;37.412;2024-03-02T16:01:13;43.53;;;18.83;;
69034;SDS011;56091;55.756;37.412;2024-03-02T16:06:14;39.07;;;18.27;;
69034;SDS011;56091;55.756;37.412;2024-03-02T16:11:15;45.20;;;19.88;;
69034;SDS011;56091;55.756;37.412;2024-03-02T16:16:16;39.37;;;17.77;;
69034;SDS011;56091;55.756;37.412;2024-03-02T16:21:16;37.40;;;16.40;;
69034;SDS011;56091;55.756;37.412;2024-03-02T16:26:20;32.87;;;14.97;;
69034;SDS011;56091;55.756;37.412;2024-03-02T16:31:21;31.13;;;14.15;;
69034;SDS011;56091;55.756;37.412;2024-03-02T16:36:22;29.17;;;13.63;;
69034;SDS011;56091;55.756;37.412;2024-03-02T16:41:23;30.97;;;14.60;;
69034;SDS011;56091;55.756;37.412;2024-03-02T16:46:24;31.05;;;13.65;;
69034;SDS011;56091;55.756;37.412;2024-03-02T16:51:25;35.07;;;15.80;;
69034;SDS011;56091;55.756;37.412;2024-03-02T16:56:26;39.97;;;18.60;;
69034;SDS011;56091;55.756;37.412;2024-03-02T17:01:27;46.07;;;17.57;;
69034;SDS011;56091;55.756;37.412;2024-03-02T17:06:28;41.58;;;17.55;;
69034;SDS011;56091;55.756;37.412;2024-03-02T17:11:29;40.27;;;18.23;;
69034;SDS011;56091;55.756;37.412;2024-03-02T17:16:31;51.92;;;21.45;;
69034;SDS011;56091;55.756;37.412;2024-03-02T17:21:31;37.50;;;18.67;;
69034;SDS011;56091;55.756;37.412;2024-03-02T17:26:32;36.38;;;16.42;;
69034;SDS011;56091;55.756;37.412;2024-03-02T17:31:34;36.20;;;16.20;;
69034;SDS011;56091;55.756;37.412;2024-03-02T17:36:34;39.22;;;17.88;;
69034;SDS011;56091;55.756;37.412;2024-03-02T17:41:35;41.47;;;19.20;;
69034;SDS011;56091;55.756;37.412;2024-03-02T17:46:36;45.72;;;19.80;;
69034;SDS011;56091;55.756;37.412;2024-03-02T17:51:37;42.63;;;18.83;;
69034;SDS011;56091;55.756;37.412;2024-03-02T17:56:38;35.60;;;16.50;;
69034;SDS011;56091;55.756;37.412;2024-03-02T18:01:39;36.05;;;17.25;;
69034;SDS011;56091;55.756;37.412;2024-03-02T18:06:39;44.60;;;18.23;;
69034;SDS011;56091;55.756;37.412;2024-03-02T18:11:40;39.20;;;17.13;;
69034;SDS011;56091;55.756;37.412;2024-03-02T18:16:41;36.27;;;16.27;;
69034;SDS011;56091;55.756;37.412;2024-03-02T18:21:42;38.17;;;16.40;;
69034;SDS011;56091;55.756;37.412;2024-03-02T18:26:42;37.83;;;17.13;;
69034;SDS011;56091;55.756;37.412;2024-03-02T18:31:43;40.10;;;17.27;;
69034;SDS011;56091;55.756;37.412;2024-03-02T18:36:44;37.05;;;17.30;;
69034;SDS011;56091;55.756;37.412;2024-03-02T18:41:45;42.30;;;17.07;;
69034;SDS011;56091;55.756;37.412;2024-03-02T18:46:46;38.45;;;17.17;;
69034;SDS011;56091;55.756;37.412;2024-03-02T18:51:47;39.53;;;16.60;;
69034;SDS011;56091;55.756;37.412;2024-03-02T18:56:48;34.97;;;16.30;;
69034;SDS011;56091;55.756;37.412;2024-03-02T19:01:48;37.92;;;17.08;;
69034;SDS011;56091;55.756;37.412;2024-03-02T19:06:49;33.30;;;16.23;;
69034;SDS011;56091;55.756;37.412;2024-03-02T19:11:50;39.95;;;17.17;;
69034;SDS011;56091;55.756;37.412;2024-03-02T19:16:51;38.90;;;17.55;;
69034;SDS011;56091;55.756;37.412;2024-03-02T19:21:52;41.40;;;17.63;;
69034;SDS011;56091;55.756;37.412;2024-03-02T19:26:53;39.50;;;17.00;;
69034;SDS011;56091;55.756;37.412;2024-03-02T19:31:54;45.67;;;17.33;;
69034;SDS011;56091;55.756;37.412;2024-03-02T19:36:55;38.42;;;17.10;;
69034;SDS011;56091;55.756;37.412;2024-03-02T19:41:57;36.03;;;17.07;;
69034;SDS011;56091;55.756;37.412;2024-03-02T19:47:00;39.90;;;16.60;;
69034;SDS011;56091;55.756;37.412;2024-03-02T19:52:01;37.77;;;16.43;;
69034;SDS011;56091;55.756;37.412;2024-03-02T19:57:02;40.05;;;17.15;;
69034;SDS011;56091;55.756;37.412;2024-03-02T20:02:03;33.38;;;15.52;;
69034;SDS011;56091;55.756;37.412;2024-03-02T20:07:10;35.42;;;15.13;;
69034;SDS011;56091;55.756;37.412;2024-03-02T20:12:11;36.15;;;15.20;;
69034;SDS011;56091;55.756;37.412;2024-03-02T20:17:12;30.97;;;14.97;;
69034;SDS011;56091;55.756;37.412;2024-03-02T20:22:12;34.00;;;17.10;;
69034;SDS011;56091;55.756;37.412;2024-03-02T20:27:13;37.37;;;16.47;;
69034;SDS011;56091;55.756;37.412;2024-03-02T20:32:14;39.97;;;18.25;;
69034;SDS011;56091;55.756;37.412;2024-03-02T20:37:18;41.30;;;18.00;;
69034;SDS011;56091;55.756;37.412;2024-03-02T20:42:24;39.47;;;17.42;;
69034;SDS011;56091;55.756;37.412;2024-03-02T20:47:26;40.00;;;18.08;;
69034;SDS011;56091;55.756;37.412;2024-03-02T20:52:27;38.63;;;17.90;;
69034;SDS011;56091;55.756;37.412;2024-03-02T20:57:27;46.20;;;18.48;;
69034;SDS011;56091;55.756;37.412;2024-03-02T21:02:29;39.20;;;18.57;;
69034;SDS011;56091;55.756;37.412;2024-03-02T21:07:30;37.22;;;17.60;;
69034;SDS011;56091;55.756;37.412;2024-03-02T21:12:31;36.90;;;18.57;;
69034;SDS011;56091;55.756;37.412;2024-03-02T21:17:31;37.97;;;17.83;;
69034;SDS011;56091;55.756;37.412;2024-03-02T21:22:32;38.13;;;17.07;;
69034;SDS011;56091;55.756;37.412;2024-03-02T21:27:33;36.87;;;16.50;;
69034;SDS011;56091;55.756;37.412;2024-03-02T21:32:34;37.25;;;17.25;;
69034;SDS011;56091;55.756;37.412;2024-03-02T21:37:34;38.43;;;15.90;;
69034;SDS011;56091;55.756;37.412;2024-03-02T21:42:35;38.40;;;16.37;;
69034;SDS011;56091;55.756;37.412;2024-03-02T21:47:36;37.05;;;15.55;;
69034;SDS011;56091;55.756;37.412;2024-03-02T21:52:42;34.13;;;15.87;;
69034;SDS011;56091;55.756;37.412;2024-03-02T21:57:43;38.97;;;16.58;;
69034;SDS011;56091;55.756;37.412;2024-03-02T22:02:44;34.27;;;16.17;;
69034;SDS011;56091;55.756;37.412;2024-03-02T22:07:45;34.88;;;15.50;;
69034;SDS011;56091;55.756;37.412;2024-03-02T22:12:46;37.40;;;15.73;;
69034;SDS011;56091;55.756;37.412;2024-03-02T22:17:47;33.30;;;15.03;;
69034;SDS011;56091;55.756;37.412;2024-03-02T22:22:49;34.47;;;16.50;;
69034;SDS011;56091;55.756;37.412;2024-03-02T22:27:49;37.17;;;15.40;;
69034;SDS011;56091;55.756;37.412;2024-03-02T22:32:54;32.17;;;15.20;;
69034;SDS011;56091;55.756;37.412;2024-03-02T22:37:57;33.53;;;15.20;;
69034;SDS011;56091;55.756;37.412;2024-03-02T22:42:58;33.93;;;14.90;;
69034;SDS011;56091;55.756;37.412;2024-03-02T22:47:58;40.40;;;15.77;;
69034;SDS011;56091;55.756;37.412;2024-03-02T22:52:59;35.13;;;14.70;;
69034;SDS011;56091;55.756;37.412;2024-03-02T22:58:00;32.87;;;15.00;;
69034;SDS011;56091;55.756;37.412;2024-03-02T23:03:01;38.88;;;15.35;;
69034;SDS011;56091;55.756;37.412;2024-03-02T23:08:02;33.03;;;14.23;;
69034;SDS011;56091;55.756;37.412;2024-03-02T23:13:03;32.75;;;13.85;;
69034;SDS011;56091;55.756;37.412;2024-03-02T23:18:04;31.93;;;13.43;;
69034;SDS011;56091;55.756;37.412;2024-03-02T23:23:05;31.60;;;13.10;;
69034;SDS011;56091;55.756;37.412;2024-03-02T23:28:06;28.70;;;13.35;;
69034;SDS011;56091;55.756;37.412;2024-03-02T23:33:06;29.27;;;13.60;;
69034;SDS011;56091;55.756;37.412;2024-03-02T23:38:07;35.13;;;13.60;;
69034;SDS011;56091;55.756;37.412;2024-03-02T23:43:08;32.35;;;13.82;;
69034;SDS011;56091;55.756;37.412;2024-03-02T23:48:09;29.47;;;13.20;;
69034;SDS011;56091;55.756;37.412;2024-03-02T23:53:10;33.20;;;13.45;;
69034;SDS011;56091;55.756;37.412;2024-03-02T23:58:11;33.57;;;13.40;;
